Robert Davies

Chief Scout - Portsmouth
16 Sep 2027
Thursday
Process

Personality

Adaptability (2) Ambition (9) Controversy (3) Loyalty (5) Pressure (5) Professionalism (16) Sportsmanship (19) Temperament (8)

Profile

Coaching Style Democratic
License Continental A
Determination 10
Man Management 12
Motivating 4
Discipline 12
Job Satisfaction
69%
Fatigue
0%
Role Chief Scout
Wage 15.8K p/w
Contract 14.03.2030

Performance

Behaviour Good
Training Effectiveness
25%
Player Development
60%
Injury Prevention
25%
Tactical Implementation
35%

Recent Events

Attended a recruitment meeting now
Recommended a transfer target now
Recommended a transfer target now
Recommended a transfer target now
Recommended a transfer target 7d ago
Recommended a transfer target 7d ago
Recommended a transfer target 7d ago
Recommended a transfer target 7d ago

Currently Monitoring

167
Player Club Status Ability Confidence Watched Last Observed Latest Vote
Johnly Yfeko Exeter City Active 109 / 128 76% 1 16.08.2027 Approve
Nathan Moriah-Welsh Mansfield Town Active 116 / 129 76% 1 02.08.2027 Approve
Fuzy Taylor Medeama Active 73 / 102 40% 1 21.07.2027 -
Keagan Phiri Platinum Stars Active 105 / 109 40% 1 21.07.2027 -
Gonçalo Oliveira Benfica Active 113 / 117 40% 1 21.07.2027 -
Joel Ezra Enyimba Active 87 / 118 40% 1 12.07.2027 -
Tiago Freitas Benfica Active 117 / 116 40% 1 12.07.2027 -
Hosea Michael Remo Stars Active 83 / 79 40% 1 12.07.2027 -
Mpho Khethang AS Police Active 92 / 81 40% 1 21.06.2027 -
Riley Owen Trento Active 102 / 106 40% 1 21.06.2027 -
Bernardo Lima Porto Active 94 / 99 40% 1 08.06.2027 -
Jofre Torrents Ajax Active 121 / 120 40% 1 08.06.2027 -
Leandro Martins Benfica Active 94 / 93 40% 1 08.06.2027 -
Nicolò Tresoldi Club Brugge Active 129 / 133 67% 1 01.06.2027 Approve
André Miranda Porto Active 101 / 120 40% 1 31.05.2027 -
Gilberto Mora Atlético Madrid Active 129 / 149 40% 1 31.05.2027 -
Joel McGregor Swindon Town Active 96 / 99 40% 1 31.05.2027 -
Seymour Reid New York City Active 101 / 94 40% 1 30.05.2027 -
Iwan Morgan Grimsby Town Active 111 / 117 40% 7 29.05.2027 -
Inti López River Plate Active 92 / 104 40% 2 27.05.2027 -
Anestis Mythou PAOK Active 99 / 102 40% 3 27.05.2027 -
Lorenzo De Leo Renate Active 95 / 91 40% 6 26.05.2027 -
Leo Castledine Middlesbrough Active 127 / 138 40% 7 26.05.2027 -
Ognjen Bondžulić Mladost Lucani Active 100 / 118 40% 4 24.05.2027 -
Chimobi Igwilo Rangers International Active 83 / 87 40% 2 24.05.2027 -
Paco Esteban Virtus Entella Active 96 / 105 40% 7 23.05.2027 -
Nicolás Azambuja Cádiz Active 120 / 132 40% 2 23.05.2027 -
Maren Kefas Plateau United Active 92 / 103 40% 7 22.05.2027 -
Víctor Guzmán Sporting CP Active 91 / 108 40% 5 22.05.2027 -
Ruben Ramos LA Galaxy Active 92 / 108 40% 6 19.05.2027 -
Luke Baartman ES Mostaganem Active 103 / 126 40% 9 18.05.2027 -
Markus Jensen Nacional Active 102 / 113 40% 2 18.05.2027 -
Adama Goïta Remo Stars Active 103 / 91 40% 5 14.05.2027 -
Hazeem Bakre Crawley Town Active 84 / 82 40% 4 13.05.2027 -
Dilan Neves Benfica Active 83 / 83 40% 1 11.05.2027 -
Baylee Dipepa Norwich City Active 99 / 109 40% 5 10.05.2027 -
Ben Ahmed Kohili Paradou Active 97 / 108 40% 5 09.05.2027 -
Lwanda Mbanjwa Maritzburg United Active 94 / 110 40% 10 30.04.2027 -
Dilan Godoy Vélez Active 110 / 105 40% 1 29.04.2027 -
Nicolas Verkooijen PSV Active 114 / 117 40% 1 28.04.2027 -
Luca Mazzeo Potenza Active 100 / 91 40% 1 27.04.2027 -
Borna Knezović Casarano Active 102 / 101 40% 2 25.04.2027 -
Matty Warhurst Manchester City Active 83 / 82 40% 1 23.04.2027 -
Fletcher Holman Swindon Town Active 87 / 84 40% 5 22.04.2027 -
Iaia Manco Danfa Borussia Mönchengladbach Active 99 / 99 40% 1 22.04.2027 -
Dramane Kamagaté USM Alger Active 105 / 109 40% 3 21.04.2027 -
Sidiki Chérif Coventry City Active 122 / 122 40% 3 16.04.2027 -
Luca Maiorano Nacional Active 98 / 112 40% 1 14.04.2027 -
Will Lankshear Middlesbrough Active 131 / 137 40% 7 12.04.2027 -
Zinho Witsel Mouscron Active 81 / 91 40% 1 09.04.2027 -
Miloš Jovičić Zabbar St. Patrick Active 95 / 108 40% 1 08.04.2027 -
Amaury Morales Pumas UNAM Active 103 / 108 40% 2 07.04.2027 -
Baba N'Diaye Chelyabinsk Active 82 / 82 40% 2 07.04.2027 -
Mateus Mané Manchester United Active 127 / 136 40% 2 06.04.2027 -
Angelos Neofytou Omonoia Active 95 / 101 40% 1 30.03.2027 -
Joseph Arumala Ikorodu City Active 78 / 109 40% 2 28.03.2027 -
Rocco Vata Watford Active 123 / 125 40% 7 27.03.2027 -
Federico Serra Arezzo Active 87 / 101 40% 3 17.03.2027 -
Aidan Dausch AC Ajaccio Active 75 / 93 40% 2 17.03.2027 -
Shunsuke Saito Westerlo Active 99 / 96 40% 1 11.03.2027 -
Yuval Ranon Vitesse Active 86 / 94 40% 1 09.03.2027 -
Dom Ballard Leyton Orient Active 122 / 117 40% 9 05.03.2027 -
Chineme Chinonso Ikorodu City Active 86 / 114 40% 4 26.02.2027 -
Agustín Fernández NK Zavrc Active 88 / 74 40% 3 19.02.2027 -
Rayan Bournemouth Active 138 / 133 40% 4 16.02.2027 -
Gustavo Ferreira Benfica Active 85 / 96 40% 2 14.02.2027 -
Abubakar Garba Grasshopper Active 84 / 91 40% 1 12.02.2027 -
Alagie Wally Veres Active 94 / 95 40% 2 10.02.2027 -
Ante Brekalo Zadar Active 107 / 124 40% 1 03.02.2027 -
Florentino Luís Ipswich Town Active 141 / 135 40% 2 25.01.2027 -
Dennis Cirkin Queens Park Rangers Active 132 / 116 40% 1 25.01.2027 -
Andreas Trimmel Red Bull Salzburg Active 131 / 131 60% 1 01.01.2027 Approve
Jefry Zapata Danubio Active 118 / 118 67% 1 01.01.2027 Approve
Harvey White Stevenage Active 107 / 113 40% 1 31.12.2026 -
Siyanda Ndlovu Bloemfontein Celtic Active 109 / 116 40% 2 30.12.2026 -
Tommy Conway Middlesbrough Active 128 / 135 40% 1 30.12.2026 -
Jean Galindo Imotski Active 93 / 80 40% 1 30.12.2026 -
Ali Ahmed Norwich City Active 120 / 136 40% 2 28.12.2026 -
Rico Lewis Manchester City Active 154 / 152 40% 1 25.12.2026 -
Tyler Goodrham Oxford United Active 111 / 125 40% 1 24.12.2026 -
Sayfallah Ltaief Cracovia Active 118 / 128 40% 1 24.12.2026 -
Oswin Appollis Orlando Pirates Active 113 / 123 40% 3 23.12.2026 -
Louie Barry Sheffield Wednesday Active 129 / 128 40% 1 23.12.2026 -
Harry Clarke Preston Active 130 / 138 40% 1 23.12.2026 -
Ilyas Ansah Hull City Active 131 / 121 40% 4 21.12.2026 -
Reda Khadra Qarabag Active 140 / 135 40% 2 21.12.2026 -
Tom Fellows Southampton Active 125 / 132 40% 1 19.12.2026 -
Isaiah Jones Luton Town Active 123 / 121 40% 1 19.12.2026 -
Dávid Strelec Middlesbrough Active 141 / 124 40% 1 19.12.2026 -
Hassan Beja AFC Leopards Active 69 / 70 40% 4 17.12.2026 -
Mathias Jørgensen Blackburn Rovers Active 113 / 105 40% 1 17.12.2026 -
Cian Ashford Cardiff City Active 116 / 125 40% 1 17.12.2026 -
Telasco Segovia Inter Miami CF Active 123 / 119 40% 1 16.12.2026 -
Everton Bala Levski Active 125 / 117 40% 1 15.12.2026 -
Kwame Poku Queens Park Rangers Active 133 / 136 40% 1 15.12.2026 -
Carlos Vicente Birmingham Active 139 / 145 40% 1 15.12.2026 -
Micah Burton Austin FC Active 95 / 77 40% 5 14.12.2026 -
Matvii Ponomarenko Dynamo Kyiv Active 125 / 110 40% 1 14.12.2026 -
Senny Mayulu Paris Saint-Germain Active 141 / 151 40% 1 12.12.2026 -
Andy Rojas New York Red Bulls Active 84 / 110 40% 2 11.12.2026 -
Jonás Luna Santa Clara Active 109 / 115 40% 2 10.12.2026 -
Alex Harris Colorado Rapids Active 87 / 98 40% 1 10.12.2026 -
Kabu Agyemang Raymond Bechem United Active 73 / 93 40% 1 09.12.2026 -
Ezekiel Kwame Alladoh Philadelphia Union Active 119 / 139 40% 2 07.12.2026 -
Vivaldo Semedo Watford Active 115 / 128 40% 3 05.12.2026 -
Leon Grgić Sturm Graz Active 123 / 115 40% 1 04.12.2026 -
Nikolay Zlatev Cherno More Active 87 / 114 40% 2 03.12.2026 -
Shea Charles Southampton Active 130 / 129 40% 2 03.12.2026 -
Hamzat Ojediran Colorado Rapids Active 129 / 119 40% 1 03.12.2026 -
Luke McNally Bristol City Active 125 / 141 40% 1 03.12.2026 -
Toby Collyer West Bromwich Albion Active 120 / 129 40% 1 01.12.2026 -
Alexandr Chernikov Krasnodar Active 142 / 114 40% 1 01.12.2026 -
Luka Jovanović San Jose Earthquakes Active 110 / 92 40% 2 29.11.2026 -
Endrick Real Madrid Active 149 / 162 40% 3 28.11.2026 -
Darlvin Yeboah Bechem United Active 67 / 96 40% 1 25.11.2026 -
Othmane Maamma Watford Active 116 / 135 40% 2 23.11.2026 -
Thiago Salischiker Rucci HNK Vukovar 1991 Active 100 / 111 40% 1 23.11.2026 -
Elias Achouri San Diego Football Club Active 126 / 137 40% 1 23.11.2026 -
Tshepang Moremi Orlando Pirates Active 103 / 98 40% 2 21.11.2026 -
Thalente Mbatha Orlando Pirates Active 110 / 124 40% 1 21.11.2026 -
Kasey McAteer Ipswich Town Active 129 / 130 40% 1 18.11.2026 -
Ethan Williams Peterborough United Active 105 / 121 40% 1 18.11.2026 -
Marcelo Allende Mamelodi Sundowns Active 145 / 123 40% 2 16.11.2026 -
Oliver Skipp Leicester City Active 121 / 120 40% 1 16.11.2026 -
Youssoufa Moukoko FC Copenhagen Active 119 / 136 40% 5 14.11.2026 -
Sal Olivas Philadelphia Union Active 86 / 83 40% 1 13.11.2026 -
Jeong Sang-Bin St. Louis CITY SC Active 125 / 103 40% 1 13.11.2026 -
Amin Boudri Los Angeles Football Club Active 115 / 141 40% 1 10.11.2026 -
Koki Saito Queens Park Rangers Active 121 / 121 40% 1 09.11.2026 -
Bongani Modiba Black Aces Active 108 / 141 40% 1 09.11.2026 -
Mandla Erasmus SuperSport United Active 110 / 137 40% 2 08.11.2026 -
Ryan Sessegnon Fulham Active 151 / 131 40% 1 08.11.2026 -
Mohamed Farsi Columbus Crew Active 120 / 106 40% 1 08.11.2026 -
Darren Yapi Colorado Rapids Active 117 / 125 40% 4 05.11.2026 -
Tosin Olawale El-Kanemi Warriors Active 88 / 104 40% 2 04.11.2026 -
Matías Fernández-Pardo Newcastle United Active 143 / 146 40% 1 03.11.2026 -
Lucas Halter Houston Dynamo Active 124 / 107 40% 1 02.11.2026 -
Dagur Dan Þórhallsson CF Montreal Active 121 / 99 40% 1 02.11.2026 -
Archie Goodwin Charlotte Football Club Active 94 / 129 40% 5 30.10.2026 -
Elías Báez Atlanta United FC Active 119 / 125 40% 1 29.10.2026 -
James Sands New York City Active 114 / 124 40% 1 29.10.2026 -
Antony Portland Timbers Active 138 / 147 40% 1 29.10.2026 -
Joseph Abah Remo Stars Active 91 / 90 40% 1 29.10.2026 -
Alasana Yirajang AS Trencin Active 105 / 138 40% 1 26.10.2026 -
Williams Yikat Aigle Royal de Moungo Active 95 / 101 40% 3 21.10.2026 -
David Kalokoh Ajax Active 116 / 132 40% 1 20.10.2026 -
Kimani Stewart-Baynes Colorado Rapids Active 106 / 111 40% 2 15.10.2026 -
Mohammed Yahaya Great Olympics Active 94 / 68 40% 1 13.10.2026 -
Martín Ojeda Orlando City Active 124 / 115 40% 1 13.10.2026 -
Yannick Bright Inter Miami CF Active 125 / 124 40% 1 13.10.2026 -
Marco Pašalić Orlando City Active 114 / 109 40% 1 12.10.2026 -
Conrad Wallem Austria Wien Active 126 / 133 40% 1 12.10.2026 -
Gabriel Pirani San Diego Football Club Active 132 / 149 40% 1 11.10.2026 -
Paxten Aaronson Colorado Rapids Active 135 / 136 40% 1 11.10.2026 -
Patrick Preciado Deportivo Pasto Active 104 / 98 40% 2 04.10.2026 -
Kristian Fletcher FC Cincinnati Active 93 / 95 40% 3 30.09.2026 -
Stefanos Tzimas Brighton Active 140 / 135 40% 1 21.09.2026 -
Chinedu Onyinjekwu Bayelsa United Active 101 / 85 40% 2 20.09.2026 -
Ricky Louis FC Dallas Active 90 / 97 40% 1 17.09.2026 -
Marcus Caldeira Minnesota United FC Active 82 / 84 40% 2 16.09.2026 -
Owen Graham-Roache CF Montreal Active 80 / 101 40% 1 15.09.2026 -
Oladimeji Dada Ikorodu City Active 83 / 74 40% 1 08.09.2026 -
Jerónimo Russo Newell's Old Boys Active 93 / 112 40% 1 07.09.2026 -
Blessed Iyamu Kun Khalifat Active 80 / 80 40% 1 31.08.2026 -
Caleb Yirenkyi Coventry City Active 130 / 125 40% 1 01.08.2026 -
Godwin Oham Warri Wolves Active 73 / 87 40% 1 01.08.2026 -
Jonny Shore New York City Active 89 / 117 40% 1 01.08.2026 -